Time;durP1;ratioP1;P1;durP2;ratioP2;P2;SDS_P1;SDS_P2;PMS_P1;PMS_P2;Temp;Humidity;BMP_temperature;BMP_pressure;BME280_temperature;BME280_humidity;BME280_pressure;Samples;Min_cycle;Max_cycle;Signal;HPM_P1;HPM_P2
2022/06/10 00:01:13;;;;;;;1999.90;999.90;;;;;;;;;;5116823;27;20385;-71
2022/06/10 00:03:41;;;;;;;1999.90;999.90;;;;;;;;;;5121546;27;20392;-71
2022/06/10 00:06:09;;;;;;;1999.90;999.90;;;;;;;;;;5111139;27;20895;-70
2022/06/10 00:08:38;;;;;;;1999.90;999.90;;;;;;;;;;5121677;27;20525;-73
2022/06/10 00:11:07;;;;;;;1999.90;999.90;;;;;;;;;;5115342;27;20397;-70
2022/06/10 00:13:36;;;;;;;1999.90;999.90;;;;;;;;;;5103042;27;20404;-70
2022/06/10 00:16:04;;;;;;;1999.90;999.90;;;;;;;;;;5121441;27;20413;-70
2022/06/10 00:18:33;;;;;;;1999.90;999.90;;;;;;;;;;5123376;27;20403;-70
2022/06/10 00:21:02;;;;;;;1999.90;999.90;;;;;;;;;;5119758;27;20549;-70
2022/06/10 00:23:29;;;;;;;1999.90;999.90;;;;;;;;;;5116286;27;20382;-71
2022/06/10 00:25:57;;;;;;;1999.90;999.90;;;;;;;;;;5115496;27;20413;-71
2022/06/10 00:28:25;;;;;;;1999.90;999.90;;;;;;;;;;5125030;27;20405;-71
2022/06/10 00:30:53;;;;;;;1999.90;999.90;;;;;;;;;;5121155;27;20388;-71
2022/06/10 00:33:21;;;;;;;1999.90;999.90;;;;;;;;;;5107526;27;20392;-69
2022/06/10 00:35:51;;;;;;;1999.90;999.90;;;;;;;;;;5115295;27;20397;-71
2022/06/10 00:38:19;;;;;;;1999.90;999.90;;;;;;;;;;5122458;27;20428;-71
2022/06/10 00:40:49;;;;;;;1999.90;999.90;;;;;;;;;;5121217;27;20916;-71
2022/06/10 00:43:19;;;;;;;1999.90;999.90;;;;;;;;;;5114551;27;20536;-70
2022/06/10 00:45:56;;;;;;;1999.90;999.90;;;;;;;;;;5115722;27;20408;-70
2022/06/10 00:48:27;;;;;;;1999.90;999.90;;;;;;;;;;5117502;27;20404;-70
2022/06/10 00:50:57;;;;;;;1999.90;999.90;;;;;;;;;;5100284;27;20396;-71
2022/06/10 00:53:27;;;;;;;1999.90;999.90;;;;;;;;;;5107349;27;20422;-71
2022/06/10 00:55:56;;;;;;;1999.90;999.90;;;;;;;;;;5121517;27;20400;-70
2022/06/10 00:58:25;;;;;;;1999.90;999.90;;;;;;;;;;5119201;27;20400;-71
2022/06/10 01:00:53;;;;;;;1999.90;999.90;;;;;;;;;;5115401;27;20847;-69
2022/06/10 01:03:21;;;;;;;1999.90;999.90;;;;;;;;;;5119221;27;20429;-70
2022/06/10 01:05:48;;;;;;;1999.90;999.90;;;;;;;;;;5121971;27;20389;-70
2022/06/10 01:08:19;;;;;;;1999.90;999.90;;;;;;;;;;5115131;27;20512;-71
2022/06/10 01:10:50;;;;;;;1999.90;999.90;;;;;;;;;;5116630;27;20445;-71
2022/06/10 01:13:25;;;;;;;1999.90;999.90;;;;;;;;;;5114086;27;20401;-71
2022/06/10 01:15:56;;;;;;;1999.90;999.90;;;;;;;;;;5116813;27;20394;-72
2022/06/10 01:18:33;;;;;;;1999.90;999.90;;;;;;;;;;5115759;27;20508;-71
2022/06/10 01:21:06;;;;;;;1999.90;999.90;;;;;;;;;;5115760;27;20385;-72
2022/06/10 01:24:01;;;;;;;1999.90;999.90;;;;;;;;;;5119731;27;20924;-72
2022/06/10 01:30:01;;;;;;;1999.90;999.90;;;;;;;;;;5119999;27;20402;-72
2022/06/10 01:32:32;;;;;;;1999.90;999.90;;;;;;;;;;5110540;27;20393;-71
2022/06/10 01:35:03;;;;;;;1999.90;999.90;;;;;;;;;;5117835;27;20405;-70
2022/06/10 01:37:35;;;;;;;1999.90;999.90;;;;;;;;;;5117517;27;20397;-71
2022/06/10 01:40:05;;;;;;;1999.90;999.90;;;;;;;;;;5114010;27;20413;-70
2022/06/10 01:42:35;;;;;;;1999.90;999.90;;;;;;;;;;5123118;27;20381;-70
2022/06/10 01:45:09;;;;;;;1999.90;999.90;;;;;;;;;;5096785;27;20417;-71
2022/06/10 01:47:42;;;;;;;1999.90;999.90;;;;;;;;;;5112846;27;20397;-71
2022/06/10 01:50:12;;;;;;;1999.90;999.90;;;;;;;;;;5117423;27;20409;-71
2022/06/10 01:52:42;;;;;;;1999.90;999.90;;;;;;;;;;5112968;27;20740;-71
2022/06/10 01:55:14;;;;;;;1999.90;999.90;;;;;;;;;;5133097;27;21631;-71
2022/06/10 01:57:45;;;;;;;1999.90;999.90;;;;;;;;;;5105648;27;20402;-71
2022/06/10 02:00:14;;;;;;;1999.90;999.90;;;;;;;;;;5111653;27;20395;-71
2022/06/10 02:02:48;;;;;;;1999.90;999.90;;;;;;;;;;5122470;27;21017;-72
2022/06/10 02:05:17;;;;;;;1999.90;999.90;;;;;;;;;;5116862;27;20388;-72
2022/06/10 02:07:47;;;;;;;1999.90;999.90;;;;;;;;;;5119073;27;20386;-70
2022/06/10 02:10:19;;;;;;;1999.90;999.90;;;;;;;;;;5116872;27;20398;-71
2022/06/10 02:12:49;;;;;;;1999.90;999.90;;;;;;;;;;5123709;27;20464;-70
2022/06/10 02:15:20;;;;;;;1999.90;999.90;;;;;;;;;;5122412;27;20400;-71
2022/06/10 02:17:51;;;;;;;1999.90;999.90;;;;;;;;;;5125205;27;20382;-71
2022/06/10 02:20:20;;;;;;;1999.90;999.90;;;;;;;;;;5116539;27;20405;-72
2022/06/10 02:22:49;;;;;;;1999.90;999.90;;;;;;;;;;5124627;27;20400;-71
2022/06/10 02:25:19;;;;;;;1999.90;999.90;;;;;;;;;;5121711;27;20401;-70
2022/06/10 02:27:48;;;;;;;1999.90;999.90;;;;;;;;;;5106249;27;20380;-71
2022/06/10 02:30:19;;;;;;;1999.90;999.90;;;;;;;;;;5102072;27;20406;-71
2022/06/10 02:32:47;;;;;;;1999.90;999.90;;;;;;;;;;5087919;28;20393;-71
2022/06/10 02:35:17;;;;;;;1999.90;999.90;;;;;;;;;;5107390;27;20411;-71
2022/06/10 02:37:50;;;;;;;1999.90;999.90;;;;;;;;;;5109191;27;20403;-71
2022/06/10 02:40:22;;;;;;;1999.90;999.90;;;;;;;;;;5102569;27;20415;-71
2022/06/10 02:42:54;;;;;;;1999.90;999.90;;;;;;;;;;5102592;27;20403;-71
2022/06/10 02:45:25;;;;;;;1999.90;999.90;;;;;;;;;;5103710;27;20488;-71
2022/06/10 02:47:57;;;;;;;1999.90;999.90;;;;;;;;;;5088806;27;20405;-71
2022/06/10 02:50:26;;;;;;;1999.90;999.90;;;;;;;;;;5107232;27;20399;-71
2022/06/10 02:52:54;;;;;;;1999.90;999.90;;;;;;;;;;5105945;27;20391;-71
2022/06/10 02:55:22;;;;;;;1999.90;999.90;;;;;;;;;;5105839;27;20419;-71
2022/06/10 03:03:31;;;;;;;1999.90;999.90;;;;;;;;;;5103856;27;20423;-71
2022/06/10 03:06:07;;;;;;;1999.90;999.90;;;;;;;;;;5086316;27;20398;-71
2022/06/10 03:08:36;;;;;;;1999.90;999.90;;;;;;;;;;5084573;28;21181;-71
2022/06/10 03:11:11;;;;;;;1999.90;999.90;;;;;;;;;;5093884;27;20904;-71
2022/06/10 03:13:47;;;;;;;1999.90;999.90;;;;;;;;;;5089602;27;20916;-70
2022/06/10 03:16:28;;;;;;;1999.90;999.90;;;;;;;;;;5099572;27;20400;-71
2022/06/10 03:19:03;;;;;;;1999.90;999.90;;;;;;;;;;5086617;27;20460;-70
2022/06/10 03:21:35;;;;;;;1999.90;999.90;;;;;;;;;;5095938;27;20557;-71
2022/06/10 03:24:08;;;;;;;1999.90;999.90;;;;;;;;;;5103711;27;20391;-71
2022/06/10 03:26:40;;;;;;;1999.90;999.90;;;;;;;;;;5105075;27;20395;-70
2022/06/10 03:29:10;;;;;;;1999.90;999.90;;;;;;;;;;5090573;27;21330;-71
2022/06/10 03:31:39;;;;;;;1999.90;999.90;;;;;;;;;;5085781;28;20418;-70
2022/06/10 03:34:11;;;;;;;1999.90;999.90;;;;;;;;;;5103608;27;20433;-70
2022/06/10 03:36:41;;;;;;;1999.90;999.90;;;;;;;;;;5099709;27;20407;-70
2022/06/10 03:39:10;;;;;;;1999.90;999.90;;;;;;;;;;5103131;28;20388;-71
2022/06/10 03:41:41;;;;;;;1999.90;999.90;;;;;;;;;;5100880;27;20415;-71
2022/06/10 03:44:12;;;;;;;1999.90;999.90;;;;;;;;;;5094536;27;20422;-70
2022/06/10 03:46:41;;;;;;;1999.90;999.90;;;;;;;;;;5100841;27;20414;-70
2022/06/10 03:49:10;;;;;;;1999.90;999.90;;;;;;;;;;5083330;28;20411;-70
2022/06/10 03:51:38;;;;;;;1999.90;999.90;;;;;;;;;;5103575;27;20412;-70
2022/06/10 03:54:08;;;;;;;1999.90;999.90;;;;;;;;;;5081359;28;21133;-70
2022/06/10 03:56:36;;;;;;;1999.90;999.90;;;;;;;;;;5105764;27;20403;-70
2022/06/10 03:59:04;;;;;;;1999.90;999.90;;;;;;;;;;5094369;27;20394;-70
2022/06/10 04:01:32;;;;;;;1999.90;999.90;;;;;;;;;;5102077;27;20403;-70
2022/06/10 04:03:59;;;;;;;1999.90;999.90;;;;;;;;;;5100821;27;20417;-69
2022/06/10 04:06:27;;;;;;;1999.90;999.90;;;;;;;;;;5101990;27;20396;-69
2022/06/10 04:09:17;;;;;;;1999.90;999.90;;;;;;;;;;5084010;28;20773;-70
2022/06/10 04:11:45;;;;;;;1999.90;999.90;;;;;;;;;;5099709;27;20436;-70
2022/06/10 04:14:13;;;;;;;1999.90;999.90;;;;;;;;;;5083322;28;20389;-70
2022/06/10 04:16:40;;;;;;;1999.90;999.90;;;;;;;;;;5099614;27;20826;-69
2022/06/10 04:19:08;;;;;;;1999.90;999.90;;;;;;;;;;5085262;27;20415;-69
2022/06/10 04:21:36;;;;;;;1999.90;999.90;;;;;;;;;;5081610;28;20414;-69
2022/06/10 04:24:04;;;;;;;1999.90;999.90;;;;;;;;;;5101083;27;20918;-70
2022/06/10 04:26:34;;;;;;;1999.90;999.90;;;;;;;;;;5086848;28;20414;-69
2022/06/10 04:29:01;;;;;;;1999.90;999.90;;;;;;;;;;5116830;27;20396;-69
2022/06/10 04:31:29;;;;;;;1999.90;999.90;;;;;;;;;;5116328;27;20413;-70
2022/06/10 04:33:57;;;;;;;1999.90;999.90;;;;;;;;;;5112456;27;20411;-70
2022/06/10 04:36:25;;;;;;;1999.90;999.90;;;;;;;;;;5120489;27;20401;-70
2022/06/10 04:38:53;;;;;;;1999.90;999.90;;;;;;;;;;5106626;27;20390;-70
2022/06/10 04:41:20;;;;;;;1999.90;999.90;;;;;;;;;;5106584;27;20409;-69
2022/06/10 04:43:50;;;;;;;1999.90;999.90;;;;;;;;;;5104920;27;20964;-69
2022/06/10 04:46:23;;;;;;;1999.90;999.90;;;;;;;;;;5110698;27;20409;-70
2022/06/10 04:48:51;;;;;;;1999.90;999.90;;;;;;;;;;5103615;27;20409;-70
2022/06/10 04:51:19;;;;;;;1999.90;999.90;;;;;;;;;;5107757;27;20896;-69
2022/06/10 04:53:47;;;;;;;1999.90;999.90;;;;;;;;;;5112142;27;20394;-69
2022/06/10 04:56:15;;;;;;;1999.90;999.90;;;;;;;;;;5113905;27;20390;-70
2022/06/10 04:58:43;;;;;;;1999.90;999.90;;;;;;;;;;5111760;27;20417;-70
2022/06/10 05:01:12;;;;;;;1999.90;999.90;;;;;;;;;;5111904;27;20399;-71
2022/06/10 05:03:40;;;;;;;1999.90;999.90;;;;;;;;;;5118799;27;20389;-71
2022/06/10 05:06:08;;;;;;;1999.90;999.90;;;;;;;;;;5108015;27;22452;-69
2022/06/10 05:08:36;;;;;;;1999.90;999.90;;;;;;;;;;5113701;27;21105;-70
2022/06/10 05:11:04;;;;;;;1999.90;999.90;;;;;;;;;;5120494;27;20462;-70
2022/06/10 05:13:31;;;;;;;1999.90;999.90;;;;;;;;;;5113353;27;20378;-71
2022/06/10 05:15:59;;;;;;;1999.90;999.90;;;;;;;;;;5123200;27;20407;-71
2022/06/10 05:18:28;;;;;;;1999.90;999.90;;;;;;;;;;5119754;27;20984;-71
2022/06/10 05:20:56;;;;;;;1999.90;999.90;;;;;;;;;;5113961;27;20421;-70
2022/06/10 05:23:25;;;;;;;1999.90;999.90;;;;;;;;;;5114737;27;20406;-70
2022/06/10 05:25:53;;;;;;;1999.90;999.90;;;;;;;;;;5123778;27;22346;-71
2022/06/10 05:28:21;;;;;;;1999.90;999.90;;;;;;;;;;5121768;27;20884;-71
2022/06/10 05:30:50;;;;;;;1999.90;999.90;;;;;;;;;;5119104;27;20500;-71
2022/06/10 05:33:18;;;;;;;1999.90;999.90;;;;;;;;;;5118954;27;20902;-71
2022/06/10 05:35:47;;;;;;;1999.90;999.90;;;;;;;;;;5117054;27;20414;-71
2022/06/10 05:38:16;;;;;;;1999.90;999.90;;;;;;;;;;5122254;27;20410;-71
2022/06/10 05:40:44;;;;;;;1999.90;999.90;;;;;;;;;;5119180;27;20516;-71
2022/06/10 05:43:11;;;;;;;1999.90;999.90;;;;;;;;;;5123375;27;20397;-71
2022/06/10 05:45:40;;;;;;;1999.90;999.90;;;;;;;;;;5112364;27;20590;-70
2022/06/10 05:48:09;;;;;;;1999.90;999.90;;;;;;;;;;5114600;27;20412;-70
2022/06/10 05:50:38;;;;;;;1999.90;999.90;;;;;;;;;;5117791;27;20394;-71
2022/06/10 05:53:08;;;;;;;1999.90;999.90;;;;;;;;;;5119782;27;20393;-71
2022/06/10 05:55:37;;;;;;;1999.90;999.90;;;;;;;;;;5115382;27;20405;-70
2022/06/10 05:58:07;;;;;;;1999.90;999.90;;;;;;;;;;5115990;27;20407;-69
2022/06/10 06:00:35;;;;;;;1999.90;999.90;;;;;;;;;;5112460;27;20408;-72
2022/06/10 06:03:03;;;;;;;1999.90;999.90;;;;;;;;;;5113400;27;20447;-69
2022/06/10 06:05:33;;;;;;;1999.90;999.90;;;;;;;;;;5122418;27;20390;-69
2022/06/10 06:08:00;;;;;;;1999.90;999.90;;;;;;;;;;5120580;27;20456;-69
2022/06/10 06:10:29;;;;;;;1999.90;999.90;;;;;;;;;;5122172;27;20433;-69
2022/06/10 06:12:58;;;;;;;1999.90;999.90;;;;;;;;;;5122431;27;20886;-69
2022/06/10 06:15:25;;;;;;;1999.90;999.90;;;;;;;;;;5114206;27;20472;-69
2022/06/10 06:17:54;;;;;;;1999.90;999.90;;;;;;;;;;5121775;27;20398;-69
2022/06/10 06:20:22;;;;;;;1999.90;999.90;;;;;;;;;;5123078;27;20512;-69
2022/06/10 06:22:50;;;;;;;1999.90;999.90;;;;;;;;;;5124546;27;20487;-71
2022/06/10 06:25:19;;;;;;;1999.90;999.90;;;;;;;;;;5123927;27;20492;-69
2022/06/10 06:27:49;;;;;;;1999.90;999.90;;;;;;;;;;5115049;27;20947;-69
2022/06/10 06:30:18;;;;;;;1999.90;999.90;;;;;;;;;;5083568;27;20411;-69
2022/06/10 06:32:46;;;;;;;1999.90;999.90;;;;;;;;;;5101143;27;20424;-70
2022/06/10 06:35:15;;;;;;;1999.90;999.90;;;;;;;;;;5109211;27;20395;-69
2022/06/10 06:37:43;;;;;;;1999.90;999.90;;;;;;;;;;5098786;27;20437;-69
2022/06/10 06:40:12;;;;;;;1999.90;999.90;;;;;;;;;;5084542;27;20413;-69
2022/06/10 06:42:40;;;;;;;1999.90;999.90;;;;;;;;;;5086742;28;20398;-69
2022/06/10 06:45:10;;;;;;;1999.90;999.90;;;;;;;;;;5069371;27;20479;-70
2022/06/10 06:47:51;;;;;;;1999.90;999.90;;;;;;;;;;5088877;28;20415;-69
2022/06/10 06:50:23;;;;;;;1999.90;999.90;;;;;;;;;;5104564;27;20421;-71
2022/06/10 06:52:51;;;;;;;1999.90;999.90;;;;;;;;;;5107471;27;20862;-70
2022/06/10 06:55:20;;;;;;;1999.90;999.90;;;;;;;;;;5087210;27;20823;-68
2022/06/10 06:57:49;;;;;;;1999.90;999.90;;;;;;;;;;5088965;28;20662;-69
2022/06/10 07:00:18;;;;;;;1999.90;999.90;;;;;;;;;;5101616;27;20415;-69
2022/06/10 07:02:46;;;;;;;1999.90;999.90;;;;;;;;;;5088440;27;20522;-69
2022/06/10 07:05:14;;;;;;;1999.90;999.90;;;;;;;;;;5087800;27;20464;-69
2022/06/10 07:07:43;;;;;;;1999.90;999.90;;;;;;;;;;5108019;27;20426;-67
2022/06/10 07:10:12;;;;;;;1999.90;999.90;;;;;;;;;;5106432;27;20407;-69
2022/06/10 07:12:39;;;;;;;1999.90;999.90;;;;;;;;;;5091322;27;20398;-69
2022/06/10 07:15:08;;;;;;;1999.90;999.90;;;;;;;;;;5105827;27;20419;-69
2022/06/10 07:17:37;;;;;;;1999.90;999.90;;;;;;;;;;5110994;27;20502;-69
2022/06/10 07:20:06;;;;;;;1999.90;999.90;;;;;;;;;;5098627;27;20421;-69
2022/06/10 07:22:34;;;;;;;1999.90;999.90;;;;;;;;;;5099924;27;20438;-69
2022/06/10 07:25:02;;;;;;;1999.90;999.90;;;;;;;;;;5114129;27;20394;-69
2022/06/10 07:27:30;;;;;;;1999.90;999.90;;;;;;;;;;5094370;27;20895;-68
2022/06/10 07:30:04;;;;;;;1999.90;999.90;;;;;;;;;;5122648;27;20887;-69
2022/06/10 07:32:31;;;;;;;1999.90;999.90;;;;;;;;;;5128639;27;20864;-68
2022/06/10 07:35:01;;;;;;;1999.90;999.90;;;;;;;;;;5127335;27;20442;-70
2022/06/10 07:37:28;;;;;;;1999.90;999.90;;;;;;;;;;5125639;27;20430;-69
2022/06/10 07:39:57;;;;;;;1999.90;999.90;;;;;;;;;;5124137;27;20406;-70
2022/06/10 07:42:24;;;;;;;1999.90;999.90;;;;;;;;;;5123253;27;20390;-68
2022/06/10 07:44:52;;;;;;;1999.90;999.90;;;;;;;;;;5127319;27;20405;-69
2022/06/10 07:47:19;;;;;;;1999.90;999.90;;;;;;;;;;5122411;27;20395;-71
2022/06/10 07:49:47;;;;;;;1999.90;999.90;;;;;;;;;;5123781;27;20520;-69
2022/06/10 07:52:16;;;;;;;1999.90;999.90;;;;;;;;;;5123066;27;20864;-69
2022/06/10 07:54:44;;;;;;;1999.90;999.90;;;;;;;;;;5123462;27;20393;-70
2022/06/10 07:57:12;;;;;;;1999.90;999.90;;;;;;;;;;5123901;27;20399;-69
2022/06/10 07:59:42;;;;;;;1999.90;999.90;;;;;;;;;;5127208;27;20405;-71
2022/06/10 08:02:10;;;;;;;1999.90;999.90;;;;;;;;;;5122038;27;20393;-70
2022/06/10 08:04:38;;;;;;;1999.90;999.90;;;;;;;;;;5128169;27;20394;-70
2022/06/10 08:07:06;;;;;;;1999.90;999.90;;;;;;;;;;5121725;27;20382;-69
2022/06/10 08:09:40;;;;;;;1999.90;999.90;;;;;;;;;;5128089;27;20406;-69
2022/06/10 08:12:08;;;;;;;1999.90;999.90;;;;;;;;;;5120627;27;20382;-70
2022/06/10 08:14:35;;;;;;;1999.90;999.90;;;;;;;;;;5123983;27;20443;-70
2022/06/10 08:17:06;;;;;;;1999.90;999.90;;;;;;;;;;5126615;27;20405;-69
2022/06/10 08:19:35;;;;;;;1999.90;999.90;;;;;;;;;;5118901;27;20891;-70
2022/06/10 08:25:06;;;;;;;1999.90;999.90;;;;;;;;;;5077226;28;20391;-68
2022/06/10 08:27:34;;;;;;;1999.90;999.90;;;;;;;;;;5080770;28;20423;-69
2022/06/10 08:30:02;;;;;;;1999.90;999.90;;;;;;;;;;5099652;27;20397;-69
2022/06/10 08:32:30;;;;;;;1999.90;999.90;;;;;;;;;;5125695;27;20398;-69
2022/06/10 08:34:57;;;;;;;1999.90;999.90;;;;;;;;;;5119959;27;20381;-69
2022/06/10 08:37:25;;;;;;;1999.90;999.90;;;;;;;;;;5116855;27;20397;-69
2022/06/10 08:39:53;;;;;;;1999.90;999.90;;;;;;;;;;5121522;27;20417;-69
2022/06/10 08:42:32;;;;;;;1999.90;999.90;;;;;;;;;;5123427;27;20406;-68
2022/06/10 08:45:03;;;;;;;1999.90;999.90;;;;;;;;;;5117404;27;20405;-69
2022/06/10 08:47:37;;;;;;;1999.90;999.90;;;;;;;;;;5120110;27;20393;-69
2022/06/10 08:50:18;;;;;;;1999.90;999.90;;;;;;;;;;5124016;27;20487;-69
2022/06/10 08:52:54;;;;;;;1999.90;999.90;;;;;;;;;;5125927;27;20500;-69
2022/06/10 08:55:31;;;;;;;1999.90;999.90;;;;;;;;;;5127343;27;20401;-70
2022/06/10 08:58:03;;;;;;;1999.90;999.90;;;;;;;;;;5123265;27;20950;-69
2022/06/10 09:00:33;;;;;;;1999.90;999.90;;;;;;;;;;5119815;27;20406;-70
2022/06/10 09:03:04;;;;;;;1999.90;999.90;;;;;;;;;;5124625;27;20450;-69
2022/06/10 09:05:34;;;;;;;1999.90;999.90;;;;;;;;;;5124869;27;20402;-69
2022/06/10 09:08:03;;;;;;;1999.90;999.90;;;;;;;;;;5123722;27;20386;-70
2022/06/10 09:10:36;;;;;;;1999.90;999.90;;;;;;;;;;5120913;27;20518;-69
2022/06/10 09:13:12;;;;;;;1999.90;999.90;;;;;;;;;;5123351;27;21265;-70
2022/06/10 09:15:43;;;;;;;1999.90;999.90;;;;;;;;;;5125482;27;33217;-68
2022/06/10 09:18:16;;;;;;;1999.90;999.90;;;;;;;;;;5121353;27;20394;-69
2022/06/10 09:20:46;;;;;;;1999.90;999.90;;;;;;;;;;5116696;27;20408;-69
2022/06/10 09:23:17;;;;;;;1999.90;999.90;;;;;;;;;;5124809;27;20396;-69
2022/06/10 09:25:46;;;;;;;1999.90;999.90;;;;;;;;;;5122190;27;20401;-69
2022/06/10 09:28:15;;;;;;;1999.90;999.90;;;;;;;;;;5127217;27;20397;-69
2022/06/10 09:30:46;;;;;;;1999.90;999.90;;;;;;;;;;5125339;27;20418;-68
2022/06/10 09:33:17;;;;;;;1999.90;999.90;;;;;;;;;;5122918;27;20421;-69
2022/06/10 09:35:51;;;;;;;1999.90;999.90;;;;;;;;;;5121660;27;20413;-70
2022/06/10 09:38:25;;;;;;;1999.90;999.90;;;;;;;;;;5114246;27;20502;-69
2022/06/10 09:40:59;;;;;;;1999.90;999.90;;;;;;;;;;5125204;27;20487;-69
2022/06/10 09:43:44;;;;;;;1999.90;999.90;;;;;;;;;;5126887;27;20393;-69
2022/06/10 09:46:22;;;;;;;1999.90;999.90;;;;;;;;;;5126012;27;20904;-70
2022/06/10 09:48:57;;;;;;;1999.90;999.90;;;;;;;;;;5125322;27;21180;-69
2022/06/10 09:51:30;;;;;;;1999.90;999.90;;;;;;;;;;5122152;27;22686;-69
2022/06/10 09:54:06;;;;;;;1999.90;999.90;;;;;;;;;;5120479;27;20427;-69
2022/06/10 09:56:46;;;;;;;1999.90;999.90;;;;;;;;;;5118468;27;20858;-68
2022/06/10 09:59:18;;;;;;;1999.90;999.90;;;;;;;;;;5122837;27;20374;-68
2022/06/10 10:01:57;;;;;;;1999.90;999.90;;;;;;;;;;5123253;27;20409;-69
2022/06/10 10:04:30;;;;;;;1999.90;999.90;;;;;;;;;;5123098;27;20411;-69
2022/06/10 10:07:00;;;;;;;1999.90;999.90;;;;;;;;;;5119741;27;20397;-70
2022/06/10 10:09:36;;;;;;;1999.90;999.90;;;;;;;;;;5108412;27;20390;-69
2022/06/10 10:12:10;;;;;;;1999.90;999.90;;;;;;;;;;5122911;27;21057;-69
2022/06/10 10:14:42;;;;;;;1999.90;999.90;;;;;;;;;;5124855;27;20424;-69
2022/06/10 10:17:23;;;;;;;1999.90;999.90;;;;;;;;;;5127266;27;21500;-69
2022/06/10 10:19:55;;;;;;;1999.90;999.90;;;;;;;;;;5117793;27;20402;-69
2022/06/10 10:22:30;;;;;;;1999.90;999.90;;;;;;;;;;5122841;27;21116;-70
2022/06/10 10:24:58;;;;;;;1999.90;999.90;;;;;;;;;;5121514;27;20406;-69
2022/06/10 10:27:27;;;;;;;1999.90;999.90;;;;;;;;;;5126169;27;20390;-70
2022/06/10 10:30:00;;;;;;;1999.90;999.90;;;;;;;;;;5104575;27;20399;-70
2022/06/10 10:32:29;;;;;;;1999.90;999.90;;;;;;;;;;5122765;27;20408;-69
2022/06/10 10:35:03;;;;;;;1999.90;999.90;;;;;;;;;;5101832;27;20386;-69
2022/06/10 10:37:33;;;;;;;1999.90;999.90;;;;;;;;;;5123487;27;20402;-70
2022/06/10 10:40:04;;;;;;;1999.90;999.90;;;;;;;;;;5121662;27;20391;-69
2022/06/10 10:42:34;;;;;;;1999.90;999.90;;;;;;;;;;5118574;27;20910;-69
2022/06/10 10:45:05;;;;;;;1999.90;999.90;;;;;;;;;;5127737;27;20377;-69
2022/06/10 10:47:33;;;;;;;1999.90;999.90;;;;;;;;;;5128142;27;20386;-69
2022/06/10 10:50:12;;;;;;;1999.90;999.90;;;;;;;;;;5123423;27;20486;-70
2022/06/10 10:52:42;;;;;;;1999.90;999.90;;;;;;;;;;5125427;27;20402;-69
2022/06/10 10:55:20;;;;;;;1999.90;999.90;;;;;;;;;;5123177;27;20397;-69
2022/06/10 10:57:54;;;;;;;1999.90;999.90;;;;;;;;;;5126249;27;20409;-69
2022/06/10 11:00:30;;;;;;;1999.90;999.90;;;;;;;;;;5119308;27;20499;-68
2022/06/10 11:03:01;;;;;;;1999.90;999.90;;;;;;;;;;5127297;27;21159;-68
2022/06/10 11:05:32;;;;;;;1999.90;999.90;;;;;;;;;;5126894;27;21175;-69
2022/06/10 11:08:21;;;;;;;1999.90;999.90;;;;;;;;;;5118130;27;20414;-69
2022/06/10 11:10:51;;;;;;;1999.90;999.90;;;;;;;;;;5122363;27;20389;-70
2022/06/10 11:13:23;;;;;;;1999.90;999.90;;;;;;;;;;5120628;27;20430;-70
2022/06/10 11:15:52;;;;;;;1999.90;999.90;;;;;;;;;;5125227;27;20406;-70
2022/06/10 11:18:20;;;;;;;1999.90;999.90;;;;;;;;;;5129645;27;20476;-70
2022/06/10 11:20:48;;;;;;;1999.90;999.90;;;;;;;;;;5126131;27;20529;-69
2022/06/10 11:23:21;;;;;;;1999.90;999.90;;;;;;;;;;5126127;27;20401;-70
2022/06/10 11:26:05;;;;;;;1999.90;999.90;;;;;;;;;;5120046;27;20387;-69
2022/06/10 11:28:35;;;;;;;1999.90;999.90;;;;;;;;;;5117754;27;20492;-69
2022/06/10 11:31:04;;;;;;;1999.90;999.90;;;;;;;;;;5118790;27;20439;-69
2022/06/10 11:33:39;;;;;;;1999.90;999.90;;;;;;;;;;5116855;27;20401;-70
2022/06/10 11:36:08;;;;;;;1999.90;999.90;;;;;;;;;;5116314;27;20957;-69
2022/06/10 11:38:38;;;;;;;1999.90;999.90;;;;;;;;;;5114910;27;20422;-70
2022/06/10 11:41:16;;;;;;;1999.90;999.90;;;;;;;;;;5122513;27;20443;-70
2022/06/10 11:43:46;;;;;;;1999.90;999.90;;;;;;;;;;5123283;27;20412;-70
2022/06/10 11:46:19;;;;;;;1999.90;999.90;;;;;;;;;;5123884;27;20949;-69
2022/06/10 11:48:49;;;;;;;1999.90;999.90;;;;;;;;;;5121474;27;20398;-70
2022/06/10 11:51:20;;;;;;;1999.90;999.90;;;;;;;;;;5123041;27;20402;-69
2022/06/10 11:53:50;;;;;;;1999.90;999.90;;;;;;;;;;5122174;27;20408;-69
2022/06/10 12:01:58;;;;;;;1999.90;999.90;;;;;;;;;;5125596;27;20396;-69
2022/06/10 12:04:57;;;;;;;1999.90;999.90;;;;;;;;;;5119856;27;20435;-69
2022/06/10 12:07:27;;;;;;;1999.90;999.90;;;;;;;;;;5120562;27;20400;-68
2022/06/10 12:09:57;;;;;;;1999.90;999.90;;;;;;;;;;5123215;27;20568;-68
2022/06/10 12:12:29;;;;;;;1999.90;999.90;;;;;;;;;;5123498;27;20394;-68
2022/06/10 12:14:58;;;;;;;1999.90;999.90;;;;;;;;;;5123985;27;20487;-69
2022/06/10 12:17:30;;;;;;;1999.90;999.90;;;;;;;;;;5120614;27;20392;-69
2022/06/10 12:20:00;;;;;;;1999.90;999.90;;;;;;;;;;5118272;27;20510;-69
2022/06/10 12:22:28;;;;;;;1999.90;999.90;;;;;;;;;;5121236;27;20389;-69
2022/06/10 12:24:57;;;;;;;1999.90;999.90;;;;;;;;;;5127020;27;22141;-70
2022/06/10 12:27:29;;;;;;;1999.90;999.90;;;;;;;;;;5120708;27;20405;-69
2022/06/10 12:30:02;;;;;;;1999.90;999.90;;;;;;;;;;5116062;27;20401;-69
2022/06/10 12:32:37;;;;;;;1999.90;999.90;;;;;;;;;;5120038;27;20391;-68
2022/06/10 12:35:08;;;;;;;1999.90;999.90;;;;;;;;;;5110977;27;21629;-69
2022/06/10 12:37:39;;;;;;;1999.90;999.90;;;;;;;;;;5112397;27;20388;-69
2022/06/10 12:40:12;;;;;;;1999.90;999.90;;;;;;;;;;5117763;27;21311;-69
2022/06/10 12:42:42;;;;;;;1999.90;999.90;;;;;;;;;;5119093;27;20414;-70
2022/06/10 12:45:15;;;;;;;1999.90;999.90;;;;;;;;;;5120253;27;20404;-69
2022/06/10 12:47:45;;;;;;;1999.90;999.90;;;;;;;;;;5114311;27;20398;-68
2022/06/10 12:50:18;;;;;;;1999.90;999.90;;;;;;;;;;5114456;27;20394;-69
2022/06/10 12:52:56;;;;;;;1999.90;999.90;;;;;;;;;;5118022;27;20428;-69
2022/06/10 12:55:26;;;;;;;1999.90;999.90;;;;;;;;;;5114978;27;20404;-68
2022/06/10 12:57:55;;;;;;;1999.90;999.90;;;;;;;;;;5113731;27;20400;-68
2022/06/10 13:00:41;;;;;;;1999.90;999.90;;;;;;;;;;5118655;27;21264;-69
2022/06/10 13:03:39;;;;;;;1999.90;999.90;;;;;;;;;;5117862;27;21441;-70
2022/06/10 13:06:40;;;;;;;1999.90;999.90;;;;;;;;;;5119566;27;20417;-69
2022/06/10 13:09:29;;;;;;;1999.90;999.90;;;;;;;;;;5072509;28;20393;-70
2022/06/10 13:11:57;;;;;;;1999.90;999.90;;;;;;;;;;5070506;28;20391;-70
2022/06/10 13:14:41;;;;;;;1999.90;999.90;;;;;;;;;;5093239;27;20863;-69
2022/06/10 13:17:15;;;;;;;1999.90;999.90;;;;;;;;;;5116605;27;20409;-69
2022/06/10 13:20:02;;;;;;;1999.90;999.90;;;;;;;;;;5121932;27;20877;-69
2022/06/10 13:22:32;;;;;;;1999.90;999.90;;;;;;;;;;5115687;27;20436;-69
2022/06/10 13:25:14;;;;;;;1999.90;999.90;;;;;;;;;;5123666;27;20431;-69
2022/06/10 13:27:45;;;;;;;1999.90;999.90;;;;;;;;;;5124729;27;21480;-70
2022/06/10 13:30:14;;;;;;;1999.90;999.90;;;;;;;;;;5119808;27;21202;-70
2022/06/10 13:32:50;;;;;;;1999.90;999.90;;;;;;;;;;5122444;27;20390;-70
2022/06/10 13:35:19;;;;;;;1999.90;999.90;;;;;;;;;;5119935;27;20490;-70
2022/06/10 13:37:47;;;;;;;1999.90;999.90;;;;;;;;;;5122109;27;20412;-70
2022/06/10 13:40:18;;;;;;;1999.90;999.90;;;;;;;;;;5096675;27;20397;-70
2022/06/10 13:42:51;;;;;;;1999.90;999.90;;;;;;;;;;5122133;27;20393;-69
2022/06/10 13:45:21;;;;;;;1999.90;999.90;;;;;;;;;;5124564;27;20884;-69
2022/06/10 13:47:56;;;;;;;1999.90;999.90;;;;;;;;;;5122368;27;20405;-70
2022/06/10 13:50:37;;;;;;;1999.90;999.90;;;;;;;;;;5121656;27;20380;-69
2022/06/10 13:53:06;;;;;;;1999.90;999.90;;;;;;;;;;5117160;27;21492;-75
2022/06/10 13:55:36;;;;;;;1999.90;999.90;;;;;;;;;;5120745;27;20416;-70
2022/06/10 13:58:08;;;;;;;1999.90;999.90;;;;;;;;;;5117127;27;20415;-70
2022/06/10 14:00:37;;;;;;;1999.90;999.90;;;;;;;;;;5116851;27;20417;-70
2022/06/10 14:03:16;;;;;;;1999.90;999.90;;;;;;;;;;5120823;27;20400;-70
2022/06/10 14:05:44;;;;;;;1999.90;999.90;;;;;;;;;;5122999;27;20937;-69
2022/06/10 14:08:16;;;;;;;1999.90;999.90;;;;;;;;;;5122342;27;20403;-71
2022/06/10 14:10:47;;;;;;;1999.90;999.90;;;;;;;;;;5127101;27;20392;-71
2022/06/10 14:13:19;;;;;;;1999.90;999.90;;;;;;;;;;5129269;27;20424;-71
2022/06/10 14:15:50;;;;;;;1999.90;999.90;;;;;;;;;;5127676;27;20402;-70
2022/06/10 14:18:21;;;;;;;1999.90;999.90;;;;;;;;;;5127971;27;21247;-70
2022/06/10 14:20:49;;;;;;;1999.90;999.90;;;;;;;;;;5124814;27;20393;-70